sensor_id;sensor_type;location;lat;lon;timestamp;P1;durP1;ratioP1;P2;durP2;ratioP2
35644;SDS011;21764;52.042;6.830;2022-07-26T00:03:45;16.98;;;3.47;;
35644;SDS011;21764;52.042;6.830;2022-07-26T00:08:47;18.45;;;2.80;;
35644;SDS011;21764;52.042;6.830;2022-07-26T00:13:48;19.58;;;3.00;;
35644;SDS011;21764;52.042;6.830;2022-07-26T00:18:49;18.25;;;3.70;;
35644;SDS011;21764;52.042;6.830;2022-07-26T00:23:50;17.67;;;3.55;;
35644;SDS011;21764;52.042;6.830;2022-07-26T00:28:50;17.92;;;2.80;;
35644;SDS011;21764;52.042;6.830;2022-07-26T00:33:51;19.65;;;2.90;;
35644;SDS011;21764;52.042;6.830;2022-07-26T00:38:52;15.65;;;3.20;;
35644;SDS011;21764;52.042;6.830;2022-07-26T00:43:53;20.77;;;3.38;;
35644;SDS011;21764;52.042;6.830;2022-07-26T00:48:55;20.60;;;3.15;;
35644;SDS011;21764;52.042;6.830;2022-07-26T00:53:56;20.25;;;3.47;;
35644;SDS011;21764;52.042;6.830;2022-07-26T00:58:56;16.60;;;2.70;;
35644;SDS011;21764;52.042;6.830;2022-07-26T01:03:57;13.10;;;2.45;;
35644;SDS011;21764;52.042;6.830;2022-07-26T01:08:58;24.33;;;3.47;;
35644;SDS011;21764;52.042;6.830;2022-07-26T01:13:59;13.88;;;2.63;;
35644;SDS011;21764;52.042;6.830;2022-07-26T01:19:00;14.02;;;3.22;;
35644;SDS011;21764;52.042;6.830;2022-07-26T01:24:00;10.38;;;2.30;;
35644;SDS011;21764;52.042;6.830;2022-07-26T01:29:01;12.20;;;2.45;;
35644;SDS011;21764;52.042;6.830;2022-07-26T01:34:02;6.10;;;2.15;;
35644;SDS011;21764;52.042;6.830;2022-07-26T01:39:03;10.85;;;2.38;;
35644;SDS011;21764;52.042;6.830;2022-07-26T01:44:04;13.30;;;2.70;;
35644;SDS011;21764;52.042;6.830;2022-07-26T01:49:06;12.55;;;2.67;;
35644;SDS011;21764;52.042;6.830;2022-07-26T01:54:08;12.57;;;2.85;;
35644;SDS011;21764;52.042;6.830;2022-07-26T01:59:08;10.38;;;2.85;;
35644;SDS011;21764;52.042;6.830;2022-07-26T02:04:09;13.35;;;2.72;;
35644;SDS011;21764;52.042;6.830;2022-07-26T02:09:29;12.48;;;2.50;;
35644;SDS011;21764;52.042;6.830;2022-07-26T02:14:30;15.60;;;2.65;;
35644;SDS011;21764;52.042;6.830;2022-07-26T02:19:31;12.88;;;3.15;;
35644;SDS011;21764;52.042;6.830;2022-07-26T02:24:31;18.77;;;3.15;;
35644;SDS011;21764;52.042;6.830;2022-07-26T02:29:32;11.43;;;3.08;;
35644;SDS011;21764;52.042;6.830;2022-07-26T02:34:33;16.65;;;3.08;;
35644;SDS011;21764;52.042;6.830;2022-07-26T02:39:33;8.70;;;3.25;;
35644;SDS011;21764;52.042;6.830;2022-07-26T02:44:34;10.63;;;3.20;;
35644;SDS011;21764;52.042;6.830;2022-07-26T02:49:35;13.55;;;3.22;;
35644;SDS011;21764;52.042;6.830;2022-07-26T02:54:36;10.68;;;3.13;;
35644;SDS011;21764;52.042;6.830;2022-07-26T02:59:37;12.05;;;3.05;;
35644;SDS011;21764;52.042;6.830;2022-07-26T03:04:37;16.63;;;2.90;;
35644;SDS011;21764;52.042;6.830;2022-07-26T03:09:38;15.32;;;3.50;;
35644;SDS011;21764;52.042;6.830;2022-07-26T03:14:38;15.85;;;3.20;;
35644;SDS011;21764;52.042;6.830;2022-07-26T03:19:39;12.38;;;2.95;;
35644;SDS011;21764;52.042;6.830;2022-07-26T03:24:40;16.67;;;4.75;;
35644;SDS011;21764;52.042;6.830;2022-07-26T03:29:40;18.35;;;3.60;;
35644;SDS011;21764;52.042;6.830;2022-07-26T03:34:41;14.30;;;3.60;;
35644;SDS011;21764;52.042;6.830;2022-07-26T03:39:41;16.45;;;4.22;;
35644;SDS011;21764;52.042;6.830;2022-07-26T03:44:42;12.55;;;3.58;;
35644;SDS011;21764;52.042;6.830;2022-07-26T03:49:43;15.02;;;3.97;;
35644;SDS011;21764;52.042;6.830;2022-07-26T03:54:43;17.88;;;4.00;;
35644;SDS011;21764;52.042;6.830;2022-07-26T03:59:44;20.83;;;3.90;;
35644;SDS011;21764;52.042;6.830;2022-07-26T04:04:45;21.77;;;4.15;;
35644;SDS011;21764;52.042;6.830;2022-07-26T04:09:45;23.88;;;3.72;;
35644;SDS011;21764;52.042;6.830;2022-07-26T04:14:46;22.77;;;4.35;;
35644;SDS011;21764;52.042;6.830;2022-07-26T04:19:46;21.25;;;4.68;;
35644;SDS011;21764;52.042;6.830;2022-07-26T04:24:47;22.10;;;4.65;;
35644;SDS011;21764;52.042;6.830;2022-07-26T04:29:48;16.10;;;4.43;;
35644;SDS011;21764;52.042;6.830;2022-07-26T04:34:48;15.45;;;4.63;;
35644;SDS011;21764;52.042;6.830;2022-07-26T04:39:49;17.25;;;3.97;;
35644;SDS011;21764;52.042;6.830;2022-07-26T04:44:50;19.25;;;3.90;;
35644;SDS011;21764;52.042;6.830;2022-07-26T04:49:50;14.77;;;4.30;;
35644;SDS011;21764;52.042;6.830;2022-07-26T04:54:51;16.50;;;3.92;;
35644;SDS011;21764;52.042;6.830;2022-07-26T04:59:52;22.05;;;4.45;;
35644;SDS011;21764;52.042;6.830;2022-07-26T05:04:53;21.73;;;4.30;;
35644;SDS011;21764;52.042;6.830;2022-07-26T05:09:53;14.52;;;4.15;;
35644;SDS011;21764;52.042;6.830;2022-07-26T05:14:54;17.30;;;4.03;;
35644;SDS011;21764;52.042;6.830;2022-07-26T05:19:54;16.70;;;4.47;;
35644;SDS011;21764;52.042;6.830;2022-07-26T05:24:55;12.38;;;4.13;;
35644;SDS011;21764;52.042;6.830;2022-07-26T05:29:56;14.60;;;3.88;;
35644;SDS011;21764;52.042;6.830;2022-07-26T05:34:56;17.10;;;3.88;;
35644;SDS011;21764;52.042;6.830;2022-07-26T05:39:57;15.13;;;4.10;;
35644;SDS011;21764;52.042;6.830;2022-07-26T05:44:58;20.50;;;4.43;;
35644;SDS011;21764;52.042;6.830;2022-07-26T05:49:59;15.13;;;3.85;;
35644;SDS011;21764;52.042;6.830;2022-07-26T05:54:59;12.27;;;3.58;;
35644;SDS011;21764;52.042;6.830;2022-07-26T06:00:00;17.27;;;4.63;;
35644;SDS011;21764;52.042;6.830;2022-07-26T06:05:01;19.70;;;4.22;;
35644;SDS011;21764;52.042;6.830;2022-07-26T06:10:02;12.32;;;4.03;;
35644;SDS011;21764;52.042;6.830;2022-07-26T06:15:03;14.85;;;3.63;;
35644;SDS011;21764;52.042;6.830;2022-07-26T06:20:05;12.65;;;3.35;;
35644;SDS011;21764;52.042;6.830;2022-07-26T06:25:06;9.77;;;3.47;;
35644;SDS011;21764;52.042;6.830;2022-07-26T06:30:07;14.70;;;3.78;;
35644;SDS011;21764;52.042;6.830;2022-07-26T06:35:09;9.88;;;3.88;;
35644;SDS011;21764;52.042;6.830;2022-07-26T06:40:13;14.90;;;4.78;;
35644;SDS011;21764;52.042;6.830;2022-07-26T06:45:13;12.00;;;4.85;;
35644;SDS011;21764;52.042;6.830;2022-07-26T06:50:14;15.63;;;4.57;;
35644;SDS011;21764;52.042;6.830;2022-07-26T06:55:15;11.82;;;4.80;;
35644;SDS011;21764;52.042;6.830;2022-07-26T07:00:16;10.38;;;4.70;;
35644;SDS011;21764;52.042;6.830;2022-07-26T07:05:17;12.43;;;5.03;;
35644;SDS011;21764;52.042;6.830;2022-07-26T07:10:18;16.98;;;6.05;;
35644;SDS011;21764;52.042;6.830;2022-07-26T07:15:19;17.08;;;5.45;;
35644;SDS011;21764;52.042;6.830;2022-07-26T07:20:19;16.83;;;4.57;;
35644;SDS011;21764;52.042;6.830;2022-07-26T07:25:20;17.88;;;6.68;;
35644;SDS011;21764;52.042;6.830;2022-07-26T07:30:21;8.40;;;2.45;;
35644;SDS011;21764;52.042;6.830;2022-07-26T07:35:22;7.93;;;2.42;;
35644;SDS011;21764;52.042;6.830;2022-07-26T07:40:23;9.63;;;2.10;;
35644;SDS011;21764;52.042;6.830;2022-07-26T07:45:24;6.03;;;2.13;;
35644;SDS011;21764;52.042;6.830;2022-07-26T07:50:24;8.60;;;2.55;;
35644;SDS011;21764;52.042;6.830;2022-07-26T07:55:25;7.55;;;2.00;;
35644;SDS011;21764;52.042;6.830;2022-07-26T08:00:26;8.80;;;2.55;;
35644;SDS011;21764;52.042;6.830;2022-07-26T08:05:26;7.50;;;2.30;;
35644;SDS011;21764;52.042;6.830;2022-07-26T08:10:27;5.90;;;2.30;;
35644;SDS011;21764;52.042;6.830;2022-07-26T08:15:28;9.38;;;2.80;;
35644;SDS011;21764;52.042;6.830;2022-07-26T08:20:29;8.80;;;3.05;;
35644;SDS011;21764;52.042;6.830;2022-07-26T08:25:29;7.70;;;3.38;;
35644;SDS011;21764;52.042;6.830;2022-07-26T08:30:31;6.95;;;3.22;;
35644;SDS011;21764;52.042;6.830;2022-07-26T08:35:32;8.93;;;2.95;;
35644;SDS011;21764;52.042;6.830;2022-07-26T08:40:33;12.20;;;2.90;;
35644;SDS011;21764;52.042;6.830;2022-07-26T08:45:33;6.35;;;2.20;;
35644;SDS011;21764;52.042;6.830;2022-07-26T08:50:37;8.07;;;2.38;;
35644;SDS011;21764;52.042;6.830;2022-07-26T08:55:39;6.85;;;2.60;;
35644;SDS011;21764;52.042;6.830;2022-07-26T09:00:42;8.57;;;2.28;;
35644;SDS011;21764;52.042;6.830;2022-07-26T09:10:50;5.03;;;1.27;;
35644;SDS011;21764;52.042;6.830;2022-07-26T09:16:09;4.78;;;1.27;;
35644;SDS011;21764;52.042;6.830;2022-07-26T09:21:32;3.35;;;1.30;;
35644;SDS011;21764;52.042;6.830;2022-07-26T09:26:37;5.05;;;0.98;;
35644;SDS011;21764;52.042;6.830;2022-07-26T09:31:38;5.97;;;1.02;;
35644;SDS011;21764;52.042;6.830;2022-07-26T09:36:52;6.25;;;1.15;;
35644;SDS011;21764;52.042;6.830;2022-07-26T09:41:53;4.47;;;1.17;;
35644;SDS011;21764;52.042;6.830;2022-07-26T09:46:55;6.32;;;1.52;;
35644;SDS011;21764;52.042;6.830;2022-07-26T09:51:57;7.95;;;1.63;;
35644;SDS011;21764;52.042;6.830;2022-07-26T09:56:58;3.80;;;1.60;;
35644;SDS011;21764;52.042;6.830;2022-07-26T10:01:59;5.07;;;1.50;;
35644;SDS011;21764;52.042;6.830;2022-07-26T10:07:01;8.68;;;1.60;;
35644;SDS011;21764;52.042;6.830;2022-07-26T10:12:04;5.90;;;1.80;;
35644;SDS011;21764;52.042;6.830;2022-07-26T10:22:30;5.35;;;1.80;;
35644;SDS011;21764;52.042;6.830;2022-07-26T10:27:39;9.48;;;2.08;;
35644;SDS011;21764;52.042;6.830;2022-07-26T10:32:41;7.90;;;2.17;;
35644;SDS011;21764;52.042;6.830;2022-07-26T10:37:56;8.13;;;2.05;;
35644;SDS011;21764;52.042;6.830;2022-07-26T10:43:14;8.40;;;2.17;;
35644;SDS011;21764;52.042;6.830;2022-07-26T10:48:19;7.40;;;2.35;;
35644;SDS011;21764;52.042;6.830;2022-07-26T10:53:24;7.18;;;2.00;;
35644;SDS011;21764;52.042;6.830;2022-07-26T10:58:26;7.15;;;1.90;;
35644;SDS011;21764;52.042;6.830;2022-07-26T11:03:36;4.88;;;1.88;;
35644;SDS011;21764;52.042;6.830;2022-07-26T11:08:38;9.63;;;1.98;;
35644;SDS011;21764;52.042;6.830;2022-07-26T11:13:39;4.40;;;1.20;;
35644;SDS011;21764;52.042;6.830;2022-07-26T11:18:40;4.65;;;1.27;;
35644;SDS011;21764;52.042;6.830;2022-07-26T11:23:42;4.82;;;1.02;;
35644;SDS011;21764;52.042;6.830;2022-07-26T11:34:00;4.33;;;1.07;;
35644;SDS011;21764;52.042;6.830;2022-07-26T11:39:03;6.22;;;1.30;;
35644;SDS011;21764;52.042;6.830;2022-07-26T11:44:06;3.93;;;0.97;;
35644;SDS011;21764;52.042;6.830;2022-07-26T11:49:17;5.22;;;0.90;;
35644;SDS011;21764;52.042;6.830;2022-07-26T11:54:21;6.22;;;1.13;;
35644;SDS011;21764;52.042;6.830;2022-07-26T11:59:24;6.67;;;1.60;;
35644;SDS011;21764;52.042;6.830;2022-07-26T12:04:27;6.03;;;1.35;;
35644;SDS011;21764;52.042;6.830;2022-07-26T12:09:33;2.13;;;1.02;;
35644;SDS011;21764;52.042;6.830;2022-07-26T12:14:36;4.00;;;1.38;;
35644;SDS011;21764;52.042;6.830;2022-07-26T12:19:38;4.53;;;1.20;;
35644;SDS011;21764;52.042;6.830;2022-07-26T12:29:51;4.22;;;1.15;;
35644;SDS011;21764;52.042;6.830;2022-07-26T12:35:06;5.18;;;1.20;;
35644;SDS011;21764;52.042;6.830;2022-07-26T12:40:21;2.75;;;0.80;;
35644;SDS011;21764;52.042;6.830;2022-07-26T12:45:25;8.05;;;1.10;;
35644;SDS011;21764;52.042;6.830;2022-07-26T12:50:27;3.70;;;0.80;;
35644;SDS011;21764;52.042;6.830;2022-07-26T12:55:29;4.90;;;1.23;;
35644;SDS011;21764;52.042;6.830;2022-07-26T13:00:30;3.22;;;1.10;;
35644;SDS011;21764;52.042;6.830;2022-07-26T13:05:31;5.72;;;1.30;;
35644;SDS011;21764;52.042;6.830;2022-07-26T13:10:32;6.28;;;1.50;;
35644;SDS011;21764;52.042;6.830;2022-07-26T13:15:33;6.97;;;1.75;;
35644;SDS011;21764;52.042;6.830;2022-07-26T13:20:35;11.10;;;1.58;;
35644;SDS011;21764;52.042;6.830;2022-07-26T13:25:37;9.40;;;1.38;;
35644;SDS011;21764;52.042;6.830;2022-07-26T13:30:37;4.60;;;1.48;;
35644;SDS011;21764;52.042;6.830;2022-07-26T13:35:41;5.23;;;1.30;;
35644;SDS011;21764;52.042;6.830;2022-07-26T13:40:42;7.20;;;1.40;;
35644;SDS011;21764;52.042;6.830;2022-07-26T13:45:43;5.50;;;1.50;;
35644;SDS011;21764;52.042;6.830;2022-07-26T13:50:43;11.38;;;2.13;;
35644;SDS011;21764;52.042;6.830;2022-07-26T13:55:44;7.55;;;1.38;;
35644;SDS011;21764;52.042;6.830;2022-07-26T14:00:45;8.25;;;1.38;;
35644;SDS011;21764;52.042;6.830;2022-07-26T14:05:46;11.38;;;1.83;;
35644;SDS011;21764;52.042;6.830;2022-07-26T14:10:47;6.65;;;1.67;;
35644;SDS011;21764;52.042;6.830;2022-07-26T14:15:47;9.68;;;1.50;;
35644;SDS011;21764;52.042;6.830;2022-07-26T14:20:48;6.75;;;1.77;;
35644;SDS011;21764;52.042;6.830;2022-07-26T14:25:49;9.43;;;1.83;;
35644;SDS011;21764;52.042;6.830;2022-07-26T14:30:49;6.70;;;1.60;;
35644;SDS011;21764;52.042;6.830;2022-07-26T14:35:50;13.63;;;2.40;;
35644;SDS011;21764;52.042;6.830;2022-07-26T14:40:52;10.13;;;1.77;;
35644;SDS011;21764;52.042;6.830;2022-07-26T14:45:53;7.90;;;1.88;;
35644;SDS011;21764;52.042;6.830;2022-07-26T14:50:53;8.63;;;2.22;;
35644;SDS011;21764;52.042;6.830;2022-07-26T14:55:54;8.80;;;1.98;;
35644;SDS011;21764;52.042;6.830;2022-07-26T15:00:55;7.72;;;1.70;;
35644;SDS011;21764;52.042;6.830;2022-07-26T15:05:56;6.50;;;1.58;;
35644;SDS011;21764;52.042;6.830;2022-07-26T15:10:57;10.98;;;1.85;;
35644;SDS011;21764;52.042;6.830;2022-07-26T15:15:58;10.93;;;2.05;;
35644;SDS011;21764;52.042;6.830;2022-07-26T15:20:59;9.00;;;2.15;;
35644;SDS011;21764;52.042;6.830;2022-07-26T15:26:01;16.98;;;2.03;;
35644;SDS011;21764;52.042;6.830;2022-07-26T15:31:02;11.43;;;2.53;;
35644;SDS011;21764;52.042;6.830;2022-07-26T15:36:03;11.60;;;2.33;;
35644;SDS011;21764;52.042;6.830;2022-07-26T15:41:04;11.98;;;2.03;;
35644;SDS011;21764;52.042;6.830;2022-07-26T15:46:04;10.68;;;2.00;;
35644;SDS011;21764;52.042;6.830;2022-07-26T15:51:05;11.30;;;2.40;;
35644;SDS011;21764;52.042;6.830;2022-07-26T15:56:06;8.02;;;1.80;;
35644;SDS011;21764;52.042;6.830;2022-07-26T16:01:07;5.60;;;1.60;;
35644;SDS011;21764;52.042;6.830;2022-07-26T16:06:08;8.05;;;1.60;;
35644;SDS011;21764;52.042;6.830;2022-07-26T16:11:08;11.15;;;2.03;;
35644;SDS011;21764;52.042;6.830;2022-07-26T16:16:09;13.25;;;2.25;;
35644;SDS011;21764;52.042;6.830;2022-07-26T16:21:11;9.55;;;2.13;;
35644;SDS011;21764;52.042;6.830;2022-07-26T16:26:12;14.07;;;2.20;;
35644;SDS011;21764;52.042;6.830;2022-07-26T16:31:13;12.75;;;2.15;;
35644;SDS011;21764;52.042;6.830;2022-07-26T16:36:14;11.65;;;2.20;;
35644;SDS011;21764;52.042;6.830;2022-07-26T16:41:14;13.60;;;1.83;;
35644;SDS011;21764;52.042;6.830;2022-07-26T16:46:16;12.98;;;2.05;;
35644;SDS011;21764;52.042;6.830;2022-07-26T16:51:17;9.63;;;2.47;;
35644;SDS011;21764;52.042;6.830;2022-07-26T16:56:18;9.27;;;1.65;;
35644;SDS011;21764;52.042;6.830;2022-07-26T17:01:20;7.35;;;1.83;;
35644;SDS011;21764;52.042;6.830;2022-07-26T17:06:20;13.75;;;2.30;;
35644;SDS011;21764;52.042;6.830;2022-07-26T17:11:21;13.63;;;2.78;;
35644;SDS011;21764;52.042;6.830;2022-07-26T17:16:22;12.10;;;2.65;;
35644;SDS011;21764;52.042;6.830;2022-07-26T17:21:23;13.15;;;3.20;;
35644;SDS011;21764;52.042;6.830;2022-07-26T17:26:23;7.43;;;2.08;;
35644;SDS011;21764;52.042;6.830;2022-07-26T17:31:24;10.35;;;1.95;;
35644;SDS011;21764;52.042;6.830;2022-07-26T17:36:26;11.95;;;1.90;;
35644;SDS011;21764;52.042;6.830;2022-07-26T17:41:28;8.55;;;1.73;;
35644;SDS011;21764;52.042;6.830;2022-07-26T17:46:30;11.50;;;1.65;;
35644;SDS011;21764;52.042;6.830;2022-07-26T17:51:33;8.60;;;1.90;;
35644;SDS011;21764;52.042;6.830;2022-07-26T17:56:34;9.50;;;2.00;;
35644;SDS011;21764;52.042;6.830;2022-07-26T18:01:35;7.40;;;1.58;;
35644;SDS011;21764;52.042;6.830;2022-07-26T18:06:35;13.68;;;2.10;;
35644;SDS011;21764;52.042;6.830;2022-07-26T18:11:36;11.63;;;2.17;;
35644;SDS011;21764;52.042;6.830;2022-07-26T18:16:38;9.07;;;1.77;;
35644;SDS011;21764;52.042;6.830;2022-07-26T18:21:40;11.07;;;2.00;;
35644;SDS011;21764;52.042;6.830;2022-07-26T18:26:41;11.70;;;2.85;;
35644;SDS011;21764;52.042;6.830;2022-07-26T18:31:42;10.75;;;2.00;;
35644;SDS011;21764;52.042;6.830;2022-07-26T18:36:43;11.90;;;2.05;;
35644;SDS011;21764;52.042;6.830;2022-07-26T18:41:43;8.18;;;1.67;;
35644;SDS011;21764;52.042;6.830;2022-07-26T18:46:44;8.45;;;1.75;;
35644;SDS011;21764;52.042;6.830;2022-07-26T18:51:45;10.70;;;1.63;;
35644;SDS011;21764;52.042;6.830;2022-07-26T18:56:46;8.82;;;1.42;;
35644;SDS011;21764;52.042;6.830;2022-07-26T19:01:47;4.75;;;1.60;;
35644;SDS011;21764;52.042;6.830;2022-07-26T19:06:47;10.02;;;1.60;;
35644;SDS011;21764;52.042;6.830;2022-07-26T19:11:51;8.68;;;1.40;;
35644;SDS011;21764;52.042;6.830;2022-07-26T19:16:52;10.63;;;2.00;;
35644;SDS011;21764;52.042;6.830;2022-07-26T19:21:53;11.32;;;2.03;;
35644;SDS011;21764;52.042;6.830;2022-07-26T19:26:53;9.63;;;1.80;;
35644;SDS011;21764;52.042;6.830;2022-07-26T19:31:54;11.65;;;1.90;;
35644;SDS011;21764;52.042;6.830;2022-07-26T19:36:55;7.93;;;1.73;;
35644;SDS011;21764;52.042;6.830;2022-07-26T19:41:56;5.28;;;1.40;;
35644;SDS011;21764;52.042;6.830;2022-07-26T19:46:56;10.05;;;1.90;;
35644;SDS011;21764;52.042;6.830;2022-07-26T19:51:57;7.28;;;2.17;;
35644;SDS011;21764;52.042;6.830;2022-07-26T19:56:58;17.42;;;1.88;;
35644;SDS011;21764;52.042;6.830;2022-07-26T20:01:59;8.15;;;2.00;;
35644;SDS011;21764;52.042;6.830;2022-07-26T20:07:00;9.30;;;1.77;;
35644;SDS011;21764;52.042;6.830;2022-07-26T20:12:02;5.32;;;1.60;;
35644;SDS011;21764;52.042;6.830;2022-07-26T20:17:03;8.00;;;1.65;;
35644;SDS011;21764;52.042;6.830;2022-07-26T20:22:04;6.18;;;1.50;;
35644;SDS011;21764;52.042;6.830;2022-07-26T20:27:05;5.07;;;1.33;;
35644;SDS011;21764;52.042;6.830;2022-07-26T20:32:06;5.05;;;1.48;;
35644;SDS011;21764;52.042;6.830;2022-07-26T20:37:07;9.38;;;1.67;;
35644;SDS011;21764;52.042;6.830;2022-07-26T20:42:07;6.47;;;1.42;;
35644;SDS011;21764;52.042;6.830;2022-07-26T20:47:08;8.50;;;1.65;;
35644;SDS011;21764;52.042;6.830;2022-07-26T20:52:09;5.68;;;1.70;;
35644;SDS011;21764;52.042;6.830;2022-07-26T20:57:10;8.70;;;1.60;;
35644;SDS011;21764;52.042;6.830;2022-07-26T21:02:11;9.32;;;1.92;;
35644;SDS011;21764;52.042;6.830;2022-07-26T21:07:11;6.72;;;1.70;;
35644;SDS011;21764;52.042;6.830;2022-07-26T21:12:12;6.20;;;1.75;;
35644;SDS011;21764;52.042;6.830;2022-07-26T21:17:13;8.77;;;1.92;;
35644;SDS011;21764;52.042;6.830;2022-07-26T21:22:14;13.40;;;4.00;;
35644;SDS011;21764;52.042;6.830;2022-07-26T21:27:14;12.30;;;2.22;;
35644;SDS011;21764;52.042;6.830;2022-07-26T21:32:15;5.40;;;1.98;;
35644;SDS011;21764;52.042;6.830;2022-07-26T21:37:16;15.20;;;2.47;;
35644;SDS011;21764;52.042;6.830;2022-07-26T21:42:16;7.28;;;1.85;;
35644;SDS011;21764;52.042;6.830;2022-07-26T21:47:17;11.05;;;2.05;;
35644;SDS011;21764;52.042;6.830;2022-07-26T21:52:19;9.18;;;2.25;;
35644;SDS011;21764;52.042;6.830;2022-07-26T21:57:19;10.43;;;3.03;;
35644;SDS011;21764;52.042;6.830;2022-07-26T22:02:20;9.65;;;3.75;;
35644;SDS011;21764;52.042;6.830;2022-07-26T22:07:21;9.23;;;2.70;;
35644;SDS011;21764;52.042;6.830;2022-07-26T22:12:21;12.43;;;2.78;;
35644;SDS011;21764;52.042;6.830;2022-07-26T22:17:22;15.85;;;3.17;;
35644;SDS011;21764;52.042;6.830;2022-07-26T22:22:23;9.75;;;2.83;;
35644;SDS011;21764;52.042;6.830;2022-07-26T22:27:23;9.48;;;2.70;;
35644;SDS011;21764;52.042;6.830;2022-07-26T22:32:25;6.70;;;2.33;;
35644;SDS011;21764;52.042;6.830;2022-07-26T22:37:26;8.48;;;3.10;;
35644;SDS011;21764;52.042;6.830;2022-07-26T22:42:26;11.95;;;2.63;;
35644;SDS011;21764;52.042;6.830;2022-07-26T22:47:27;8.63;;;2.85;;
35644;SDS011;21764;52.042;6.830;2022-07-26T22:52:28;10.55;;;2.70;;
35644;SDS011;21764;52.042;6.830;2022-07-26T22:57:28;13.35;;;3.10;;
35644;SDS011;21764;52.042;6.830;2022-07-26T23:02:29;8.85;;;2.60;;
35644;SDS011;21764;52.042;6.830;2022-07-26T23:07:30;6.82;;;2.67;;
35644;SDS011;21764;52.042;6.830;2022-07-26T23:12:31;8.55;;;2.58;;
35644;SDS011;21764;52.042;6.830;2022-07-26T23:17:32;14.45;;;2.80;;
35644;SDS011;21764;52.042;6.830;2022-07-26T23:22:33;7.53;;;2.75;;
35644;SDS011;21764;52.042;6.830;2022-07-26T23:27:33;10.93;;;2.85;;
35644;SDS011;21764;52.042;6.830;2022-07-26T23:32:34;12.30;;;2.72;;
35644;SDS011;21764;52.042;6.830;2022-07-26T23:37:35;11.38;;;2.78;;
35644;SDS011;21764;52.042;6.830;2022-07-26T23:42:35;7.97;;;2.85;;
35644;SDS011;21764;52.042;6.830;2022-07-26T23:47:36;8.07;;;2.88;;
35644;SDS011;21764;52.042;6.830;2022-07-26T23:52:37;8.07;;;2.70;;
35644;SDS011;21764;52.042;6.830;2022-07-26T23:57:37;9.82;;;2.75;;
